Time;durP1;ratioP1;P1;durP2;ratioP2;P2;SDS_P1;SDS_P2;PMS_P1;PMS_P2;Temp;Humidity;BMP_temperature;BMP_pressure;BME280_temperature;BME280_humidity;BME280_pressure;Samples;Min_cycle;Max_cycle;Signal;HPM_P1;HPM_P2
2024/01/01 00:01:04;;;;;;;8.25;4.70;;;6.70;99.90;;;;;;5219140;28;20447;-32
2024/01/01 00:03:38;;;;;;;6.18;4.13;;;6.70;99.90;;;;;;5222639;28;20038;-32
2024/01/01 00:06:09;;;;;;;6.03;4.03;;;6.70;99.90;;;;;;5226602;28;20035;-32
2024/01/01 00:08:41;;;;;;;9.10;4.40;;;6.70;99.90;;;;;;5223603;28;20041;-32
2024/01/01 00:11:13;;;;;;;9.70;4.70;;;6.70;99.90;;;;;;5218493;28;20408;-32
2024/01/01 00:13:47;;;;;;;5.90;4.25;;;6.60;99.90;;;;;;5221746;28;20157;-32
2024/01/01 00:16:20;;;;;;;10.57;4.95;;;6.60;99.90;;;;;;5223346;28;20021;-32
2024/01/01 00:18:52;;;;;;;5.70;3.87;;;6.60;99.90;;;;;;5225631;28;20313;-31
2024/01/01 00:21:26;;;;;;;4.28;3.15;;;6.60;99.90;;;;;;5229888;28;20047;-31
2024/01/01 00:24:02;;;;;;;6.30;4.13;;;6.50;99.90;;;;;;5226347;28;20370;-34
2024/01/01 00:26:34;;;;;;;3.17;2.85;;;6.50;99.90;;;;;;5225162;28;20044;-31
2024/01/01 00:29:09;;;;;;;4.53;3.45;;;6.50;99.90;;;;;;5216364;28;20029;-31
2024/01/01 00:31:42;;;;;;;4.65;2.80;;;6.50;99.90;;;;;;5218307;28;20281;-31
2024/01/01 00:34:14;;;;;;;3.50;2.50;;;6.40;99.90;;;;;;5227510;28;20367;-31
2024/01/01 00:36:47;;;;;;;3.83;2.45;;;6.20;99.90;;;;;;5229105;28;20234;-31
2024/01/01 00:39:21;;;;;;;4.47;2.60;;;6.10;99.90;;;;;;5190227;28;20033;-31
2024/01/01 00:41:56;;;;;;;3.38;2.13;;;5.90;1.00;;;;;;5213077;28;20111;-32
2024/01/01 00:44:27;;;;;;;3.42;2.35;;;5.70;99.90;;;;;;5212952;28;20037;-32
2024/01/01 00:47:00;;;;;;;2.50;2.00;;;5.70;99.90;;;;;;5204451;28;20486;-32
2024/01/01 00:49:37;;;;;;;;;;;5.60;1.00;;;;;;5212543;28;20033;-32
2024/01/01 00:52:12;;;;;;;3.45;2.05;;;5.50;1.00;;;;;;5220761;28;19916;-32
2024/01/01 00:54:47;;;;;;;3.28;1.83;;;5.50;99.90;;;;;;5230918;28;20493;-32
2024/01/01 00:57:25;;;;;;;2.83;1.48;;;5.40;99.90;;;;;;5212136;28;20194;-31
2024/01/01 00:59:59;;;;;;;2.33;1.45;;;5.30;1.00;;;;;;5231093;28;20425;-31
2024/01/01 01:02:31;;;;;;;2.27;1.50;;;5.20;1.00;;;;;;5227277;28;20047;-35
2024/01/01 01:05:05;;;;;;;1.85;1.58;;;5.10;1.00;;;;;;5230286;28;20317;-35
2024/01/01 01:07:38;;;;;;;2.05;1.63;;;5.00;99.90;;;;;;5230434;28;20037;-35
2024/01/01 01:10:13;;;;;;;1.73;1.33;;;4.90;1.00;;;;;;5211061;28;20029;-35
2024/01/01 01:12:44;;;;;;;;;;;4.70;1.00;;;;;;5195455;28;20036;-35
2024/01/01 01:15:17;;;;;;;1.20;1.10;;;4.60;99.90;;;;;;5227056;28;19915;-35
2024/01/01 01:17:51;;;;;;;1.00;0.90;;;4.50;99.90;;;;;;5227705;28;20454;-35
2024/01/01 01:20:22;;;;;;;1.20;1.20;;;4.40;99.90;;;;;;5217871;28;20032;-35
2024/01/01 01:22:57;;;;;;;1.15;0.82;;;4.40;99.90;;;;;;5229344;28;20033;-37
2024/01/01 01:25:29;;;;;;;1.02;0.82;;;4.30;99.90;;;;;;5229758;28;20029;-35
2024/01/01 01:28:03;;;;;;;1.30;0.93;;;4.30;99.90;;;;;;5229314;28;20028;-35
2024/01/01 01:30:36;;;;;;;1.13;1.05;;;4.20;99.90;;;;;;5225079;28;20321;-36
2024/01/01 01:33:07;;;;;;;0.93;0.80;;;4.10;1.00;;;;;;5229300;28;20033;-36
2024/01/01 01:35:41;;;;;;;1.02;0.93;;;4.10;1.00;;;;;;5229248;28;20029;-36
2024/01/01 01:38:13;;;;;;;0.77;0.77;;;4.10;1.00;;;;;;5227057;28;20039;-36
2024/01/01 01:40:44;;;;;;;0.70;0.70;;;4.10;1.00;;;;;;5229418;28;20036;-36
2024/01/01 01:43:23;;;;;;;0.80;0.80;;;4.10;1.00;;;;;;5230019;28;20212;-35
2024/01/01 01:45:56;;;;;;;1.02;0.93;;;4.00;1.00;;;;;;5222807;28;20033;-35
2024/01/01 01:48:28;;;;;;;1.03;0.93;;;4.00;1.00;;;;;;5229733;28;20029;-35
2024/01/01 01:51:02;;;;;;;1.30;0.93;;;4.00;1.00;;;;;;5229193;28;20032;-34
2024/01/01 01:53:36;;;;;;;2.03;0.80;;;3.90;1.00;;;;;;5229527;28;20034;-34
2024/01/01 01:56:08;;;;;;;1.65;1.05;;;3.90;1.00;;;;;;5228171;28;20025;-35
2024/01/01 01:58:44;;;;;;;1.10;1.10;;;3.90;1.00;;;;;;5218561;28;20195;-34
2024/01/01 02:01:16;;;;;;;1.05;0.95;;;3.90;1.00;;;;;;5225746;28;20306;-38
2024/01/01 02:03:47;;;;;;;11.38;1.45;;;3.90;1.00;;;;;;5221702;28;20016;-37
2024/01/01 02:06:19;;;;;;;0.77;0.77;;;3.90;1.00;;;;;;5229259;28;20313;-38
2024/01/01 02:08:52;;;;;;;1.10;1.00;;;3.90;1.00;;;;;;5225803;28;20315;-38
2024/01/01 02:11:26;;;;;;;1.58;1.13;;;3.90;1.00;;;;;;5228602;28;20024;-38
2024/01/01 02:14:07;;;;;;;0.90;0.90;;;3.90;1.00;;;;;;5218021;28;20037;-37
2024/01/01 02:16:44;;;;;;;1.17;1.00;;;3.80;1.00;;;;;;5225539;28;20047;-38
2024/01/01 02:19:19;;;;;;;1.20;1.10;;;3.90;1.00;;;;;;5226358;28;20280;-37
2024/01/01 02:21:51;;;;;;;0.95;0.88;;;3.80;1.00;;;;;;5224753;28;20032;-38
2024/01/01 02:24:23;;;;;;;1.55;1.00;;;3.80;1.00;;;;;;5227659;28;20043;-38
2024/01/01 02:26:59;;;;;;;1.20;1.02;;;3.70;1.00;;;;;;5219912;28;20047;-38
2024/01/01 02:29:35;;;;;;;0.98;0.90;;;3.70;1.00;;;;;;5224007;28;20407;-38
2024/01/01 02:32:06;;;;;;;1.20;0.90;;;3.70;1.00;;;;;;5225180;28;20028;-38
2024/01/01 02:34:38;;;;;;;1.02;0.77;;;3.60;1.00;;;;;;5228029;28;20023;-38
2024/01/01 02:37:11;;;;;;;0.70;0.70;;;3.60;1.00;;;;;;5211192;28;20100;-38
2024/01/01 02:39:45;;;;;;;0.82;0.73;;;3.60;1.00;;;;;;5225947;28;20362;-37
2024/01/01 02:42:16;;;;;;;0.75;0.73;;;3.60;1.00;;;;;;5220198;28;20325;-38
2024/01/01 02:44:49;;;;;;;0.73;0.73;;;3.60;1.00;;;;;;5226245;28;20032;-38
2024/01/01 02:47:30;;;;;;;1.00;0.90;;;3.60;1.00;;;;;;5225164;28;20050;-38
2024/01/01 02:50:01;;;;;;;1.30;1.20;;;3.60;1.00;;;;;;5226811;28;20033;-38
2024/01/01 02:52:34;;;;;;;2.50;1.10;;;3.60;1.00;;;;;;5224632;28;20024;-38
2024/01/01 02:55:08;;;;;;;1.75;1.10;;;3.60;1.00;;;;;;5224346;28;20032;-42
2024/01/01 02:57:42;;;;;;;1.60;1.13;;;3.60;1.00;;;;;;5227001;28;20043;-38
2024/01/01 03:00:16;;;;;;;;;;;3.60;1.00;;;;;;5228031;28;20040;-39
2024/01/01 03:02:51;;;;;;;0.73;0.73;;;3.70;1.00;;;;;;5224653;28;20189;-38
2024/01/01 03:05:25;;;;;;;1.20;1.00;;;3.70;1.00;;;;;;5226683;28;20024;-38
2024/01/01 03:07:56;;;;;;;0.95;0.95;;;3.70;1.00;;;;;;5228098;28;20067;-38
2024/01/01 03:10:30;;;;;;;0.98;0.95;;;3.70;1.00;;;;;;5227396;28;20043;-38
2024/01/01 03:13:03;;;;;;;0.60;0.60;;;3.80;1.00;;;;;;5226482;28;20032;-38
2024/01/01 03:15:34;;;;;;;1.25;0.95;;;3.70;1.00;;;;;;5223370;28;20298;-38
2024/01/01 03:18:05;;;;;;;0.95;0.95;;;3.80;1.00;;;;;;5226918;28;20024;-38
2024/01/01 03:20:38;;;;;;;1.00;0.85;;;3.80;1.00;;;;;;5226337;28;20013;-39
2024/01/01 03:23:13;;;;;;;1.52;0.90;;;3.80;1.00;;;;;;5214386;28;20432;-38
2024/01/01 03:25:44;;;;;;;;;;;3.80;1.00;;;;;;5225229;28;20225;-39
2024/01/01 03:28:18;;;;;;;1.00;0.82;;;3.90;1.00;;;;;;5206722;28;19948;-39
2024/01/01 03:30:49;;;;;;;1.17;1.08;;;3.90;1.00;;;;;;5201047;28;20394;-38
2024/01/01 03:33:23;;;;;;;1.40;1.30;;;3.90;1.00;;;;;;5194844;28;20038;-38
2024/01/01 03:35:56;;;;;;;0.80;0.80;;;3.90;1.00;;;;;;5219471;28;20055;-38
2024/01/01 03:38:33;;;;;;;1.50;1.05;;;3.90;1.00;;;;;;5227072;28;20025;-38
2024/01/01 03:41:04;;;;;;;2.25;0.90;;;3.90;1.00;;;;;;5226503;28;20029;-38
2024/01/01 03:43:35;;;;;;;0.80;0.80;;;3.90;1.00;;;;;;5209675;28;20040;-38
2024/01/01 03:46:09;;;;;;;1.00;0.90;;;3.90;1.00;;;;;;5202161;28;20217;-39
2024/01/01 03:48:43;;;;;;;0.95;0.88;;;4.00;1.00;;;;;;5226999;28;20036;-37
2024/01/01 03:51:14;;;;;;;1.00;0.90;;;4.00;1.00;;;;;;5223714;28;20037;-38
2024/01/01 03:53:49;;;;;;;2.58;0.93;;;3.90;1.00;;;;;;5221979;28;20017;-43
2024/01/01 03:56:22;;;;;;;0.85;0.80;;;3.90;1.00;;;;;;5213611;28;20209;-39
2024/01/01 03:58:54;;;;;;;1.33;1.17;;;3.90;1.00;;;;;;5230741;28;20029;-39
2024/01/01 04:01:28;;;;;;;1.35;1.15;;;3.80;1.00;;;;;;5206443;28;20059;-37
2024/01/01 04:04:04;;;;;;;1.38;1.00;;;3.80;1.00;;;;;;5228878;28;20033;-37
2024/01/01 04:06:36;;;;;;;1.27;0.95;;;3.80;1.00;;;;;;5199348;28;20060;-37
2024/01/01 04:09:07;;;;;;;1.38;1.23;;;3.80;1.00;;;;;;5211489;28;20047;-37
2024/01/01 04:11:41;;;;;;;0.77;0.70;;;3.80;1.00;;;;;;5231612;28;20401;-39
2024/01/01 04:14:13;;;;;;;1.00;0.90;;;3.80;1.00;;;;;;5231931;28;20024;-39
2024/01/01 04:16:49;;;;;;;1.17;1.00;;;3.80;1.00;;;;;;5210986;28;20049;-39
2024/01/01 04:19:24;;;;;;;1.30;1.20;;;3.90;1.00;;;;;;5229793;28;20339;-39
2024/01/01 04:21:55;;;;;;;1.70;1.30;;;3.90;1.00;;;;;;5231810;28;20028;-39
2024/01/01 04:24:27;;;;;;;1.88;1.35;;;3.90;1.00;;;;;;5231741;28;20040;-40
2024/01/01 04:27:03;;;;;;;1.42;1.15;;;4.00;1.00;;;;;;5215035;28;20040;-37
2024/01/01 04:29:34;;;;;;;1.38;1.20;;;4.00;1.00;;;;;;5231003;28;20047;-37
2024/01/01 04:32:06;;;;;;;1.27;0.70;;;3.90;1.00;;;;;;5228375;28;20044;-38
2024/01/01 04:34:40;;;;;;;3.25;1.55;;;4.00;1.00;;;;;;5213987;28;20025;-38
2024/01/01 04:37:14;;;;;;;1.63;1.10;;;4.00;1.00;;;;;;5230851;28;20037;-37
2024/01/01 04:39:46;;;;;;;1.17;1.03;;;4.00;1.00;;;;;;5213457;28;20047;-37
2024/01/01 04:42:20;;;;;;;0.88;0.88;;;4.00;1.00;;;;;;5232096;28;20252;-39
2024/01/01 04:44:52;;;;;;;1.70;1.27;;;4.00;1.00;;;;;;5231520;28;20263;-37
2024/01/01 04:47:29;;;;;;;1.70;1.30;;;4.10;1.00;;;;;;5209370;28;20159;-38
2024/01/01 04:50:02;;;;;;;1.95;1.25;;;4.20;1.00;;;;;;5212033;28;20237;-38
2024/01/01 04:52:42;;;;;;;2.33;1.70;;;4.20;1.00;;;;;;5213122;28;20239;-40
2024/01/01 04:55:16;;;;;;;2.75;0.90;;;4.30;1.00;;;;;;5230954;28;20343;-39
2024/01/01 04:57:50;;;;;;;4.45;1.92;;;4.30;1.00;;;;;;5229064;28;20037;-39
2024/01/01 05:00:23;;;;;;;1.02;0.95;;;4.40;1.00;;;;;;5206409;28;20064;-39
2024/01/01 05:02:56;;;;;;;1.27;1.17;;;4.40;1.00;;;;;;5230656;28;20029;-38
2024/01/01 05:05:29;;;;;;;1.98;0.90;;;4.40;1.00;;;;;;5229700;28;20368;-38
2024/01/01 05:08:00;;;;;;;1.45;1.35;;;4.50;1.00;;;;;;5230611;28;20351;-38
2024/01/01 05:10:34;;;;;;;1.50;1.13;;;4.50;1.00;;;;;;5230399;28;20319;-38
2024/01/01 05:13:07;;;;;;;1.08;0.98;;;4.60;1.00;;;;;;5230794;28;20036;-38
2024/01/01 05:15:39;;;;;;;2.15;1.20;;;4.70;1.00;;;;;;5227527;28;20029;-38
2024/01/01 05:18:11;;;;;;;0.73;0.70;;;4.80;99.90;;;;;;5230249;28;20051;-37
2024/01/01 05:20:42;;;;;;;2.63;0.90;;;4.80;99.90;;;;;;5230986;28;20039;-37
2024/01/01 05:23:13;;;;;;;1.00;0.88;;;4.80;99.90;;;;;;5230998;28;20043;-37
2024/01/01 05:25:45;;;;;;;1.23;0.73;;;4.90;99.90;;;;;;5230269;28;20240;-37
2024/01/01 05:28:16;;;;;;;0.70;0.70;;;4.90;99.90;;;;;;5230882;28;20032;-38
2024/01/01 05:30:50;;;;;;;0.95;0.90;;;4.90;99.90;;;;;;5228080;28;20033;-36
2024/01/01 05:33:21;;;;;;;0.82;0.82;;;4.90;99.90;;;;;;5230218;28;20217;-35
2024/01/01 05:35:53;;;;;;;0.88;0.80;;;4.90;99.90;;;;;;5230185;28;20032;-37
2024/01/01 05:38:24;;;;;;;0.98;0.98;;;4.90;99.90;;;;;;5195293;28;20127;-37
2024/01/01 05:40:55;;;;;;;1.08;0.98;;;5.00;99.90;;;;;;5227980;28;20039;-36
2024/01/01 05:43:33;;;;;;;0.60;0.60;;;4.90;99.90;;;;;;5230090;28;20033;-36
2024/01/01 05:46:05;;;;;;;0.90;0.90;;;5.00;99.90;;;;;;5226484;28;20045;-35
2024/01/01 05:48:37;;;;;;;0.80;0.80;;;5.00;99.90;;;;;;5230482;28;20029;-35
2024/01/01 05:51:09;;;;;;;0.60;0.60;;;5.00;99.90;;;;;;5212170;28;20037;-40
2024/01/01 05:53:40;;;;;;;0.70;0.70;;;5.00;99.90;;;;;;5229532;28;20090;-33
2024/01/01 05:56:12;;;;;;;1.33;0.90;;;5.00;99.90;;;;;;5207791;28;20052;-34
2024/01/01 05:58:46;;;;;;;0.60;0.60;;;4.90;99.90;;;;;;5206860;28;20042;-34
2024/01/01 06:01:19;;;;;;;0.95;0.90;;;4.90;99.90;;;;;;5191980;28;20212;-34
2024/01/01 06:03:50;;;;;;;0.82;0.82;;;4.90;99.90;;;;;;5229923;28;20037;-35
2024/01/01 06:06:29;;;;;;;0.93;0.75;;;5.00;99.90;;;;;;5228902;28;20241;-34
2024/01/01 06:09:03;;;;;;;0.90;0.63;;;5.00;99.90;;;;;;5229761;28;20198;-34
2024/01/01 06:11:36;;;;;;;0.98;0.73;;;5.00;99.90;;;;;;5230371;28;20021;-34
2024/01/01 06:14:08;;;;;;;0.93;0.85;;;5.00;99.90;;;;;;5229313;28;20047;-34
2024/01/01 06:16:44;;;;;;;1.13;0.80;;;5.10;29.80;;;;;;5208737;28;20237;-34
2024/01/01 06:19:20;;;;;;;1.58;0.82;;;5.10;65.20;;;;;;5207617;28;20043;-34
2024/01/01 06:21:54;;;;;;;1.27;0.85;;;5.10;99.00;;;;;;5188077;28;20051;-34
2024/01/01 06:24:25;;;;;;;1.30;1.20;;;5.20;99.90;;;;;;5211490;28;20062;-33
2024/01/01 06:26:56;;;;;;;1.15;1.05;;;5.20;1.00;;;;;;5210394;28;20043;-33
2024/01/01 06:29:31;;;;;;;2.85;1.30;;;5.30;1.00;;;;;;5191100;28;20039;-33
2024/01/01 06:32:07;;;;;;;3.03;1.38;;;5.40;1.00;;;;;;5213836;28;20033;-33
2024/01/01 06:34:38;;;;;;;1.67;1.20;;;5.40;1.00;;;;;;5211527;28;20025;-34
2024/01/01 06:37:09;;;;;;;1.55;1.20;;;5.40;99.90;;;;;;5228407;28;20037;-32
2024/01/01 06:39:40;;;;;;;1.65;1.38;;;5.50;99.90;;;;;;5211344;28;20371;-32
2024/01/01 06:42:15;;;;;;;1.67;1.23;;;5.60;99.90;;;;;;5230012;28;20221;-35
2024/01/01 06:44:49;;;;;;;2.35;1.42;;;5.60;99.90;;;;;;5227837;28;20043;-33
2024/01/01 06:47:22;;;;;;;4.35;1.60;;;5.60;38.60;;;;;;5212481;28;20039;-33
2024/01/01 06:49:55;;;;;;;2.35;1.30;;;5.60;99.90;;;;;;5208797;28;20359;-38
2024/01/01 06:52:32;;;;;;;1.63;1.27;;;5.60;99.90;;;;;;5221094;28;20329;-33
2024/01/01 06:55:03;;;;;;;2.13;1.38;;;5.60;99.90;;;;;;5219160;28;20049;-36
2024/01/01 06:57:35;;;;;;;3.42;1.70;;;5.50;99.90;;;;;;5227228;28;20037;-35
2024/01/01 07:00:07;;;;;;;3.67;1.65;;;5.50;99.90;;;;;;5205931;28;20033;-35
2024/01/01 07:02:38;;;;;;;3.33;2.53;;;5.60;99.90;;;;;;5210470;28;20032;-34
2024/01/01 07:05:21;;;;;;;4.78;1.90;;;5.60;99.90;;;;;;5210485;28;20251;-35
2024/01/01 07:07:58;;;;;;;2.63;1.75;;;5.60;99.90;;;;;;5229216;28;20344;-36
2024/01/01 07:10:29;;;;;;;4.05;2.03;;;5.60;99.90;;;;;;5195273;28;20037;-36
2024/01/01 07:13:00;;;;;;;4.40;2.50;;;5.50;1.00;;;;;;5227581;28;20213;-36
2024/01/01 07:15:32;;;;;;;6.47;3.20;;;5.50;99.90;;;;;;5225063;28;20036;-36
2024/01/01 07:18:03;;;;;;;5.20;2.15;;;5.60;99.90;;;;;;5209373;28;20033;-36
2024/01/01 07:20:34;;;;;;;7.82;2.25;;;5.60;99.90;;;;;;5227080;28;20241;-34
2024/01/01 07:23:08;;;;;;;2.88;2.05;;;5.50;1.00;;;;;;5211844;28;20243;-34
2024/01/01 07:25:45;;;;;;;3.05;2.00;;;5.50;1.00;;;;;;5205387;28;20041;-37
2024/01/01 07:28:16;;;;;;;2.58;1.70;;;5.50;1.00;;;;;;5207568;28;20033;-37
2024/01/01 07:30:52;;;;;;;4.53;1.85;;;5.50;1.00;;;;;;5205913;28;20059;-37
2024/01/01 07:33:23;;;;;;;3.72;2.15;;;5.50;1.00;;;;;;5209802;28;20051;-37
2024/01/01 07:35:55;;;;;;;4.90;1.90;;;5.50;1.00;;;;;;5228040;28;20272;-37
2024/01/01 07:38:33;;;;;;;2.80;1.77;;;5.60;1.00;;;;;;5201002;28;20037;-37
2024/01/01 07:41:07;;;;;;;3.08;2.25;;;5.60;1.00;;;;;;5206469;28;20486;-38
2024/01/01 07:43:44;;;;;;;4.22;2.38;;;5.60;1.00;;;;;;5222352;28;20291;-39
2024/01/01 07:46:20;;;;;;;3.50;2.28;;;5.60;1.00;;;;;;5217458;28;20380;-39
2024/01/01 07:48:53;;;;;;;4.03;2.00;;;5.60;99.90;;;;;;5219327;28;20302;-39
2024/01/01 07:51:25;;;;;;;4.95;3.15;;;5.60;99.90;;;;;;5197990;28;20360;-36
2024/01/01 07:53:56;;;;;;;3.58;2.30;;;5.70;1.00;;;;;;5207642;28;20272;-37
2024/01/01 07:56:31;;;;;;;4.63;1.95;;;5.70;1.00;;;;;;5221973;28;20028;-37
2024/01/01 07:59:03;;;;;;;3.65;2.20;;;5.70;99.90;;;;;;5226792;28;20037;-37
2024/01/01 08:01:36;;;;;;;7.15;2.83;;;5.70;1.00;;;;;;5202982;28;20037;-37
2024/01/01 08:04:10;;;;;;;4.87;2.73;;;5.80;1.00;;;;;;5227366;28;20047;-36
2024/01/01 08:06:45;;;;;;;5.00;2.50;;;5.80;1.00;;;;;;5227663;28;20272;-38
2024/01/01 08:09:16;;;;;;;4.85;2.65;;;5.90;1.00;;;;;;5227586;28;20040;-38
2024/01/01 08:11:47;;;;;;;5.07;2.60;;;5.90;1.00;;;;;;5226663;28;20025;-38
2024/01/01 08:14:18;;;;;;;4.53;2.97;;;5.90;99.90;;;;;;5209544;28;20059;-38
2024/01/01 08:16:49;;;;;;;5.40;2.90;;;6.00;99.90;;;;;;5223239;28;20033;-37
2024/01/01 08:19:23;;;;;;;6.10;3.03;;;6.00;99.90;;;;;;5228035;28;20033;-37
2024/01/01 08:21:55;;;;;;;5.55;3.17;;;6.10;1.00;;;;;;5220274;28;20061;-39
2024/01/01 08:24:26;;;;;;;4.05;2.92;;;6.20;1.00;;;;;;5207314;28;20031;-35
2024/01/01 08:26:57;;;;;;;5.50;3.15;;;6.30;1.00;;;;;;5226459;28;20035;-35
2024/01/01 08:29:31;;;;;;;5.60;3.88;;;6.30;1.00;;;;;;5188445;28;20037;-34
2024/01/01 08:32:05;;;;;;;4.53;2.80;;;6.30;1.00;;;;;;5205532;28;20067;-33
2024/01/01 08:34:39;;;;;;;4.10;2.53;;;6.30;1.00;;;;;;5227775;28;20025;-34
2024/01/01 08:37:10;;;;;;;4.90;3.33;;;6.40;1.00;;;;;;5225568;28;20036;-33
2024/01/01 08:39:41;;;;;;;6.80;4.15;;;6.50;1.00;;;;;;5226658;28;20437;-34
2024/01/01 08:42:16;;;;;;;6.32;3.20;;;6.60;1.00;;;;;;5218681;28;20039;-34
2024/01/01 08:44:47;;;;;;;8.82;3.30;;;6.60;99.90;;;;;;5231180;28;20182;-34
2024/01/01 08:47:21;;;;;;;9.75;3.60;;;6.60;99.90;;;;;;5214102;28;20030;-36
2024/01/01 08:49:52;;;;;;;4.47;2.85;;;6.70;99.90;;;;;;5202570;28;20319;-33
2024/01/01 08:52:25;;;;;;;4.75;2.20;;;6.70;99.90;;;;;;5210105;28;20321;-33
2024/01/01 08:54:58;;;;;;;4.78;2.58;;;6.70;99.90;;;;;;5230482;28;20360;-33
2024/01/01 08:57:30;;;;;;;6.33;3.03;;;6.70;99.90;;;;;;5227177;28;20037;-32
2024/01/01 09:00:03;;;;;;;6.45;2.90;;;6.80;99.90;;;;;;5212001;28;20458;-33
2024/01/01 09:02:35;;;;;;;3.92;2.17;;;6.80;99.90;;;;;;5210803;28;20043;-33
2024/01/01 09:05:11;;;;;;;6.78;2.25;;;6.90;99.90;;;;;;5229390;28;20335;-34
2024/01/01 09:07:42;;;;;;;3.50;2.97;;;6.90;99.90;;;;;;5229499;28;20029;-34
2024/01/01 09:10:17;;;;;;;6.93;3.03;;;7.00;99.90;;;;;;5226428;28;20035;-34
2024/01/01 09:12:49;;;;;;;4.97;2.45;;;7.10;52.20;;;;;;5231605;28;20021;-35
2024/01/01 09:15:25;;;;;;;6.18;2.75;;;7.30;1.00;;;;;;5227705;28;20021;-35
2024/01/01 09:17:59;;;;;;;3.58;2.55;;;7.40;1.00;;;;;;5227044;28;20037;-35
2024/01/01 09:20:34;;;;;;;6.50;2.20;;;7.40;1.00;;;;;;5230082;28;20198;-35
2024/01/01 09:23:10;;;;;;;4.50;2.67;;;7.50;1.00;;;;;;5231979;28;20037;-35
2024/01/01 09:25:41;;;;;;;4.45;2.72;;;7.50;1.00;;;;;;5205912;28;20037;-35
2024/01/01 09:28:18;;;;;;;8.30;3.20;;;7.40;1.00;;;;;;5209382;28;20040;-34
2024/01/01 09:30:51;;;;;;;5.30;3.45;;;7.30;1.00;;;;;;5226061;28;20026;-33
2024/01/01 09:33:25;;;;;;;6.13;3.63;;;7.30;1.00;;;;;;5212256;28;20025;-33
2024/01/01 09:36:02;;;;;;;6.15;3.33;;;7.30;1.00;;;;;;5228798;28;20336;-33
2024/01/01 09:38:38;;;;;;;5.75;3.13;;;7.40;1.00;;;;;;5194730;28;20024;-33
2024/01/01 09:41:15;;;;;;;5.53;2.72;;;7.40;1.00;;;;;;5210869;28;20031;-33
2024/01/01 09:43:47;;;;;;;4.35;2.45;;;7.60;1.00;;;;;;5230006;28;20025;-33
2024/01/01 09:46:21;;;;;;;4.20;2.08;;;7.70;1.00;;;;;;5219930;28;20032;-35
2024/01/01 09:48:52;;;;;;;4.50;2.53;;;7.80;1.00;;;;;;5215259;28;20041;-37
2024/01/01 09:51:24;;;;;;;3.75;2.25;;;8.10;1.00;;;;;;5222646;28;20044;-38
2024/01/01 09:53:55;;;;;;;4.72;2.28;;;8.10;1.00;;;;;;5212513;28;20063;-32
2024/01/01 09:56:30;;;;;;;4.68;2.10;;;8.30;1.00;;;;;;5205258;28;20335;-32
2024/01/01 09:59:01;;;;;;;;;;;8.50;1.00;;;;;;5219979;28;20041;-32
2024/01/01 10:01:33;;;;;;;3.58;2.05;;;8.50;1.00;;;;;;5219048;28;19931;-32
2024/01/01 10:04:07;;;;;;;5.25;2.70;;;8.60;1.00;;;;;;5216608;28;20555;-30
2024/01/01 10:06:39;;;;;;;2.50;1.73;;;8.60;1.00;;;;;;5223156;28;20043;-32
2024/01/01 10:09:11;;;;;;;3.65;1.98;;;8.60;1.00;;;;;;5222565;28;20496;-32
2024/01/01 10:11:44;;;;;;;4.15;1.83;;;8.60;99.90;;;;;;5215391;28;20037;-32
2024/01/01 10:14:18;;;;;;;2.22;1.67;;;8.60;99.90;;;;;;5197010;28;20033;-32
2024/01/01 10:16:50;;;;;;;6.15;3.00;;;9.00;99.90;;;;;;5210169;28;20029;-32
2024/01/01 10:19:25;;;;;;;4.70;2.13;;;9.60;99.90;;;;;;5213719;28;20025;-32
2024/01/01 10:22:12;;;;;;;4.03;1.67;;;9.80;99.90;;;;;;5224686;28;20312;-31
2024/01/01 10:24:49;;;;;;;4.55;1.77;;;10.10;99.90;;;;;;5210702;28;20033;-31
2024/01/01 10:27:20;;;;;;;4.50;2.50;;;10.40;99.90;;;;;;5216192;28;20029;-31
2024/01/01 10:29:51;;;;;;;3.25;2.10;;;10.70;99.90;;;;;;5224184;28;20047;-30
2024/01/01 10:32:23;;;;;;;2.17;1.63;;;11.20;99.90;;;;;;5200482;28;20242;-30
2024/01/01 10:34:57;;;;;;;2.28;2.00;;;10.50;1.00;;;;;;5218615;28;20036;-30
2024/01/01 10:37:30;;;;;;;2.40;1.43;;;10.20;1.00;;;;;;5224131;28;20043;-32
2024/01/01 10:40:05;;;;;;;2.08;1.30;;;9.90;1.00;;;;;;5215678;28;20588;-31
2024/01/01 10:42:46;;;;;;;1.00;0.90;;;10.20;1.00;;;;;;5203175;28;20041;-31
2024/01/01 10:45:20;;;;;;;2.35;1.38;;;9.80;1.00;;;;;;5212684;28;20029;-32
2024/01/01 10:47:57;;;;;;;2.35;1.48;;;9.80;1.00;;;;;;5201075;28;20049;-32
2024/01/01 10:50:30;;;;;;;1.63;1.50;;;10.00;1.00;;;;;;5197467;28;20033;-31
2024/01/01 10:53:08;;;;;;;1.70;1.15;;;10.20;1.00;;;;;;5190023;28;20044;-35
2024/01/01 10:56:05;;;;;;;1.85;1.40;;;10.00;1.00;;;;;;5216834;28;20033;-30
2024/01/01 10:59:05;;;;;;;4.65;2.22;;;10.00;1.00;;;;;;5194069;28;20136;-30
2024/01/01 11:01:41;;;;;;;3.13;1.60;;;10.00;1.00;;;;;;5212000;28;20052;-35
2024/01/01 11:04:15;;;;;;;2.25;1.50;;;10.20;1.00;;;;;;5220508;28;20055;-31
2024/01/01 11:06:48;;;;;;;2.78;1.70;;;10.40;1.00;;;;;;5221985;28;20045;-30
2024/01/01 11:09:22;;;;;;;1.85;1.40;;;10.80;1.00;;;;;;5202755;28;20058;-31
2024/01/01 11:11:56;;;;;;;2.05;1.60;;;10.40;1.00;;;;;;5221104;28;20285;-32
2024/01/01 11:14:38;;;;;;;1.60;1.25;;;10.10;1.00;;;;;;5224972;28;20037;-30
2024/01/01 11:17:10;;;;;;;1.85;1.40;;;10.50;1.00;;;;;;5220693;28;20216;-31
2024/01/01 11:19:46;;;;;;;3.53;1.70;;;10.60;1.00;;;;;;5222802;28;20032;-30
2024/01/01 11:22:23;;;;;;;2.58;1.83;;;10.80;1.00;;;;;;5224303;28;20039;-31
2024/01/01 11:25:00;;;;;;;1.45;1.15;;;11.50;1.00;;;;;;5223674;28;20033;-31
2024/01/01 11:27:34;;;;;;;2.10;1.33;;;10.80;1.00;;;;;;5205540;28;20047;-31
2024/01/01 11:30:07;;;;;;;3.17;1.75;;;10.70;1.00;;;;;;5202853;28;20032;-31
2024/01/01 11:32:44;;;;;;;4.50;1.42;;;11.20;1.00;;;;;;5205853;28;20037;-31
2024/01/01 11:35:20;;;;;;;1.95;1.30;;;11.40;1.00;;;;;;5215031;28;20034;-32
2024/01/01 11:38:00;;;;;;;2.25;1.45;;;11.10;99.90;;;;;;5184910;28;20361;-31
2024/01/01 11:40:32;;;;;;;1.83;1.35;;;11.30;99.90;;;;;;5224317;28;20029;-31
2024/01/01 11:43:06;;;;;;;1.60;1.40;;;11.60;1.00;;;;;;5215771;28;20139;-31
2024/01/01 11:45:39;;;;;;;;;;;11.10;99.90;;;;;;5218634;28;20294;-31
2024/01/01 11:48:11;;;;;;;2.10;1.40;;;11.10;99.90;;;;;;5197576;28;19913;-31
2024/01/01 11:50:42;;;;;;;3.05;1.50;;;11.40;99.90;;;;;;5226367;28;20039;-31
2024/01/01 11:53:17;;;;;;;4.47;1.38;;;11.20;99.90;;;;;;5226436;28;20059;-32
2024/01/01 11:55:50;;;;;;;4.45;1.45;;;11.00;99.90;;;;;;5225225;28;20312;-32
2024/01/01 11:58:26;;;;;;;1.98;1.83;;;11.30;99.90;;;;;;5188025;28;20040;-32
2024/01/01 12:00:58;;;;;;;2.75;1.63;;;11.50;99.90;;;;;;5203621;28;20359;-33
2024/01/01 12:03:35;;;;;;;3.90;1.30;;;11.60;99.90;;;;;;5217028;28;20188;-31
2024/01/01 12:06:08;;;;;;;5.50;1.85;;;11.50;99.90;;;;;;5216624;28;20025;-31
2024/01/01 12:08:42;;;;;;;2.78;1.20;;;11.20;99.90;;;;;;5217631;28;20019;-36
2024/01/01 12:11:19;;;;;;;2.15;1.40;;;10.50;99.90;;;;;;5220874;28;20021;-32
2024/01/01 12:13:55;;;;;;;2.30;1.45;;;9.80;99.90;;;;;;5205751;28;20059;-32
2024/01/01 12:16:30;;;;;;;4.05;1.38;;;9.20;99.90;;;;;;5220744;28;20040;-32
2024/01/01 12:19:10;;;;;;;2.88;1.98;;;9.40;99.90;;;;;;5224676;28;20040;-32
2024/01/01 12:21:43;;;;;;;2.15;1.45;;;10.00;99.90;;;;;;5227445;28;20120;-32
2024/01/01 12:24:21;;;;;;;1.90;1.50;;;9.80;99.90;;;;;;5225380;28;20047;-32
2024/01/01 12:27:01;;;;;;;2.42;1.58;;;9.60;99.90;;;;;;5225289;28;20039;-33
2024/01/01 12:29:32;;;;;;;2.83;1.77;;;9.60;99.90;;;;;;5227561;28;20370;-31
2024/01/01 12:32:09;;;;;;;6.40;1.70;;;10.40;99.90;;;;;;5226753;28;20028;-31
2024/01/01 12:34:42;;;;;;;2.75;1.90;;;10.20;99.90;;;;;;5229823;28;20033;-33
2024/01/01 12:37:14;;;;;;;4.05;1.75;;;9.70;99.90;;;;;;5227990;28;20025;-33
2024/01/01 12:39:48;;;;;;;3.33;1.63;;;9.90;99.90;;;;;;5226014;28;20331;-32
2024/01/01 12:42:23;;;;;;;2.03;1.77;;;9.90;99.90;;;;;;5220056;28;20051;-33
2024/01/01 12:44:56;;;;;;;3.67;1.42;;;10.10;99.90;;;;;;5222699;28;20376;-32
2024/01/01 12:47:30;;;;;;;3.90;1.63;;;9.90;99.90;;;;;;5219368;28;20041;-32
2024/01/01 12:50:02;;;;;;;3.13;1.90;;;9.90;99.90;;;;;;5222299;28;20258;-32
2024/01/01 12:52:42;;;;;;;2.72;1.65;;;10.20;99.90;;;;;;5204079;28;20324;-32
2024/01/01 12:55:13;;;;;;;4.00;1.83;;;10.20;99.90;;;;;;5227367;28;20338;-31
2024/01/01 12:57:45;;;;;;;3.70;1.90;;;9.80;99.90;;;;;;5230140;28;20043;-31
2024/01/01 13:00:17;;;;;;;3.78;2.10;;;10.40;99.90;;;;;;5223971;28;20348;-32
2024/01/01 13:02:48;;;;;;;2.92;1.52;;;10.50;99.90;;;;;;5210296;28;20041;-32
2024/01/01 13:05:22;;;;;;;3.28;1.83;;;11.00;99.90;;;;;;5217808;28;20045;-32
2024/01/01 13:07:54;;;;;;;2.45;2.00;;;11.40;99.90;;;;;;5226628;28;20458;-32
2024/01/01 13:10:25;;;;;;;3.90;1.60;;;11.20;99.90;;;;;;5203540;28;20048;-33
2024/01/01 13:12:56;;;;;;;2.97;1.90;;;10.90;99.90;;;;;;5224182;28;20040;-31
2024/01/01 13:15:28;;;;;;;3.00;1.60;;;11.10;99.90;;;;;;5225451;28;20229;-33
2024/01/01 13:18:00;;;;;;;2.85;1.67;;;11.50;99.90;;;;;;5211391;28;20442;-31
2024/01/01 13:20:34;;;;;;;4.13;1.83;;;11.80;99.90;;;;;;5219326;28;20025;-30
2024/01/01 13:23:11;;;;;;;2.30;1.88;;;11.90;99.90;;;;;;5209825;28;20353;-31
2024/01/01 13:25:47;;;;;;;2.85;1.70;;;11.30;99.90;;;;;;5223132;28;20059;-32
2024/01/01 13:28:22;;;;;;;1.88;1.20;;;10.50;99.90;;;;;;5209886;28;20037;-32
2024/01/01 13:30:53;;;;;;;7.20;2.08;;;10.10;99.90;;;;;;5226392;28;20033;-33
2024/01/01 13:33:27;;;;;;;4.28;2.10;;;10.50;99.90;;;;;;5216477;28;20036;-32
2024/01/01 13:35:58;;;;;;;2.47;1.80;;;10.20;99.90;;;;;;5209371;28;20034;-31